Main page
METAR-TAF:

METAR-TAF

Airports :

New Chitose Airport

Chitose, Japan

latitude: 42-48N, longitude: 141-40E, elevation: 27 m

Current weather observation

The report was made 27 minutes ago, at 05:00 UTC
Wind 9 kt from the North, varying between North and Northeast
Temperature 9°C
Humidity 71%
Pressure 1016 hPa
Visibility 10 km or more
Few clouds at a height of 2500 ft

METAR: RJCC 230500Z 01009KT 350V050 9999 FEW025 09/04 Q1016 RMK 1CU025 A3000

Time: 14:27 (05:27 UTC)

Forecast

The report was made 6 hours and 22 minutes ago, at 23:05 UTC
Forecast valid from 23 at 00 UTC to 24 at 06 UTC
Wind 15 kt from the North/Northwest
Visibility 10 km or more
Few clouds at a height of 2000 ft
Scattered clouds at a height of 4000 ft
Becoming
from 23 at 07 UTC to 23 at 09 UTC
Wind 5 kt from the Northwest
Becoming
from 23 at 12 UTC to 23 at 15 UTC
Wind 4 kt from the South/Southeast

TAF: RJCC 222305Z 2300/2406 34015KT 9999 FEW020 SCT040 BECMG 2307/2309 31005KT BECMG 2312/2315 16004KT

Weather observations and forecasts of more than 4000 airports (METAR and TAF reports).

The available stations are represented by yellow and red dots on the map.

Hover mouse over dot to see the name of the station.

Then click to see weather observations and forecasts.

To change the map : click on the green buttons with a black cross to zoom in, on the green button with a dash to zoom out, or on the green arrows for adjacent maps.


METAR-TAF: